sensor_id;sensor_type;location;lat;lon;timestamp;P1;durP1;ratioP1;P2;durP2;ratioP2
38089;SDS011;23904;52.322;10.232;2023-06-22T00:00:43;16.83;;;14.48;;
38089;SDS011;23904;52.322;10.232;2023-06-22T00:03:09;16.20;;;14.40;;
38089;SDS011;23904;52.322;10.232;2023-06-22T00:05:35;17.85;;;15.15;;
38089;SDS011;23904;52.322;10.232;2023-06-22T00:08:03;16.63;;;14.93;;
38089;SDS011;23904;52.322;10.232;2023-06-22T00:10:30;16.83;;;15.02;;
38089;SDS011;23904;52.322;10.232;2023-06-22T00:12:56;16.52;;;13.88;;
38089;SDS011;23904;52.322;10.232;2023-06-22T00:15:21;16.60;;;15.00;;
38089;SDS011;23904;52.322;10.232;2023-06-22T00:17:47;16.63;;;14.95;;
38089;SDS011;23904;52.322;10.232;2023-06-22T00:20:12;19.15;;;15.73;;
38089;SDS011;23904;52.322;10.232;2023-06-22T00:22:39;17.17;;;15.40;;
38089;SDS011;23904;52.322;10.232;2023-06-22T00:25:08;18.05;;;16.15;;
38089;SDS011;23904;52.322;10.232;2023-06-22T00:27:34;17.80;;;15.52;;
38089;SDS011;23904;52.322;10.232;2023-06-22T00:30:00;18.63;;;16.73;;
38089;SDS011;23904;52.322;10.232;2023-06-22T00:32:26;18.17;;;16.42;;
38089;SDS011;23904;52.322;10.232;2023-06-22T00:34:52;17.20;;;15.43;;
38089;SDS011;23904;52.322;10.232;2023-06-22T00:37:17;17.20;;;15.40;;
38089;SDS011;23904;52.322;10.232;2023-06-22T00:39:43;19.77;;;17.00;;
38089;SDS011;23904;52.322;10.232;2023-06-22T00:42:09;17.58;;;15.77;;
38089;SDS011;23904;52.322;10.232;2023-06-22T00:44:35;17.67;;;15.88;;
38089;SDS011;23904;52.322;10.232;2023-06-22T00:47:01;21.00;;;16.70;;
38089;SDS011;23904;52.322;10.232;2023-06-22T00:49:28;18.17;;;16.27;;
38089;SDS011;23904;52.322;10.232;2023-06-22T00:51:54;18.25;;;15.75;;
38089;SDS011;23904;52.322;10.232;2023-06-22T00:54:21;21.13;;;16.73;;
38089;SDS011;23904;52.322;10.232;2023-06-22T00:56:50;16.63;;;14.93;;
38089;SDS011;23904;52.322;10.232;2023-06-22T00:59:20;19.70;;;16.80;;
38089;SDS011;23904;52.322;10.232;2023-06-22T01:01:46;18.88;;;16.98;;
38089;SDS011;23904;52.322;10.232;2023-06-22T01:04:11;17.23;;;15.50;;
38089;SDS011;23904;52.322;10.232;2023-06-22T01:06:39;16.65;;;14.80;;
38089;SDS011;23904;52.322;10.232;2023-06-22T01:09:28;18.25;;;15.05;;
38089;SDS011;23904;52.322;10.232;2023-06-22T01:12:01;17.75;;;15.90;;
38089;SDS011;23904;52.322;10.232;2023-06-22T01:14:45;15.75;;;14.23;;
38089;SDS011;23904;52.322;10.232;2023-06-22T01:17:20;16.35;;;14.43;;
38089;SDS011;23904;52.322;10.232;2023-06-22T01:19:49;18.05;;;16.15;;
38089;SDS011;23904;52.322;10.232;2023-06-22T01:22:21;15.80;;;14.10;;
38089;SDS011;23904;52.322;10.232;2023-06-22T01:25:13;16.70;;;14.98;;
38089;SDS011;23904;52.322;10.232;2023-06-22T01:30:40;16.40;;;14.55;;
38089;SDS011;23904;52.322;10.232;2023-06-22T01:33:09;17.30;;;15.48;;
38089;SDS011;23904;52.322;10.232;2023-06-22T01:35:37;17.50;;;14.98;;
38089;SDS011;23904;52.322;10.232;2023-06-22T01:38:04;17.83;;;15.95;;
38089;SDS011;23904;52.322;10.232;2023-06-22T01:40:30;18.85;;;14.90;;
38089;SDS011;23904;52.322;10.232;2023-06-22T01:42:58;16.83;;;15.05;;
38089;SDS011;23904;52.322;10.232;2023-06-22T01:45:26;18.27;;;15.40;;
38089;SDS011;23904;52.322;10.232;2023-06-22T01:47:52;19.88;;;15.77;;
38089;SDS011;23904;52.322;10.232;2023-06-22T01:50:19;17.52;;;15.73;;
38089;SDS011;23904;52.322;10.232;2023-06-22T01:52:45;17.58;;;15.77;;
38089;SDS011;23904;52.322;10.232;2023-06-22T01:55:11;16.42;;;14.70;;
38089;SDS011;23904;52.322;10.232;2023-06-22T01:57:37;16.48;;;14.75;;
38089;SDS011;23904;52.322;10.232;2023-06-22T02:00:07;22.42;;;17.00;;
38089;SDS011;23904;52.322;10.232;2023-06-22T02:02:39;18.15;;;16.30;;
38089;SDS011;23904;52.322;10.232;2023-06-22T02:05:21;19.90;;;16.38;;
38089;SDS011;23904;52.322;10.232;2023-06-22T02:07:52;17.42;;;14.43;;
38089;SDS011;23904;52.322;10.232;2023-06-22T02:10:22;16.83;;;15.05;;
38089;SDS011;23904;52.322;10.232;2023-06-22T02:12:48;17.05;;;15.23;;
38089;SDS011;23904;52.322;10.232;2023-06-22T02:15:16;18.20;;;16.30;;
38089;SDS011;23904;52.322;10.232;2023-06-22T02:17:42;17.80;;;15.27;;
38089;SDS011;23904;52.322;10.232;2023-06-22T02:20:11;17.08;;;15.15;;
38089;SDS011;23904;52.322;10.232;2023-06-22T02:22:39;21.02;;;15.60;;
38089;SDS011;23904;52.322;10.232;2023-06-22T02:25:04;18.05;;;16.23;;
38089;SDS011;23904;52.322;10.232;2023-06-22T02:27:30;18.65;;;14.90;;
38089;SDS011;23904;52.322;10.232;2023-06-22T02:29:56;18.42;;;16.35;;
38089;SDS011;23904;52.322;10.232;2023-06-22T02:32:22;18.17;;;16.30;;
38089;SDS011;23904;52.322;10.232;2023-06-22T02:34:47;18.00;;;15.32;;
38089;SDS011;23904;52.322;10.232;2023-06-22T02:37:13;18.25;;;15.80;;
38089;SDS011;23904;52.322;10.232;2023-06-22T02:39:39;18.02;;;14.90;;
38089;SDS011;23904;52.322;10.232;2023-06-22T02:42:05;18.50;;;16.27;;
38089;SDS011;23904;52.322;10.232;2023-06-22T02:44:31;21.00;;;16.83;;
38089;SDS011;23904;52.322;10.232;2023-06-22T02:46:57;19.65;;;16.42;;
38089;SDS011;23904;52.322;10.232;2023-06-22T02:49:23;19.52;;;15.88;;
38089;SDS011;23904;52.322;10.232;2023-06-22T02:51:48;19.13;;;16.23;;
38089;SDS011;23904;52.322;10.232;2023-06-22T02:54:14;17.70;;;15.90;;
38089;SDS011;23904;52.322;10.232;2023-06-22T02:56:41;18.45;;;16.35;;
38089;SDS011;23904;52.322;10.232;2023-06-22T02:59:08;20.17;;;15.13;;
38089;SDS011;23904;52.322;10.232;2023-06-22T03:01:35;20.52;;;17.08;;
38089;SDS011;23904;52.322;10.232;2023-06-22T03:04:05;18.38;;;16.40;;
38089;SDS011;23904;52.322;10.232;2023-06-22T03:06:32;19.05;;;16.13;;
38089;SDS011;23904;52.322;10.232;2023-06-22T03:08:59;19.58;;;14.90;;
38089;SDS011;23904;52.322;10.232;2023-06-22T03:11:26;18.98;;;16.05;;
38089;SDS011;23904;52.322;10.232;2023-06-22T03:13:52;21.05;;;16.35;;
38089;SDS011;23904;52.322;10.232;2023-06-22T03:16:18;18.20;;;16.23;;
38089;SDS011;23904;52.322;10.232;2023-06-22T03:18:44;19.75;;;15.05;;
38089;SDS011;23904;52.322;10.232;2023-06-22T03:21:10;18.27;;;15.15;;
38089;SDS011;23904;52.322;10.232;2023-06-22T03:23:35;16.95;;;14.57;;
38089;SDS011;23904;52.322;10.232;2023-06-22T03:26:01;16.75;;;14.85;;
38089;SDS011;23904;52.322;10.232;2023-06-22T03:28:27;18.27;;;15.18;;
38089;SDS011;23904;52.322;10.232;2023-06-22T03:30:53;15.95;;;14.32;;
38089;SDS011;23904;52.322;10.232;2023-06-22T03:33:18;17.65;;;15.75;;
38089;SDS011;23904;52.322;10.232;2023-06-22T03:35:44;16.80;;;14.85;;
38089;SDS011;23904;52.322;10.232;2023-06-22T03:38:09;16.73;;;14.88;;
38089;SDS011;23904;52.322;10.232;2023-06-22T03:40:35;18.10;;;14.48;;
38089;SDS011;23904;52.322;10.232;2023-06-22T03:43:00;16.27;;;14.60;;
38089;SDS011;23904;52.322;10.232;2023-06-22T03:45:26;17.20;;;15.23;;
38089;SDS011;23904;52.322;10.232;2023-06-22T03:47:51;19.48;;;15.55;;
38089;SDS011;23904;52.322;10.232;2023-06-22T03:50:18;16.25;;;14.55;;
38089;SDS011;23904;52.322;10.232;2023-06-22T03:52:45;18.13;;;15.35;;
38089;SDS011;23904;52.322;10.232;2023-06-22T03:55:11;16.27;;;14.15;;
38089;SDS011;23904;52.322;10.232;2023-06-22T03:57:37;15.60;;;14.00;;
38089;SDS011;23904;52.322;10.232;2023-06-22T04:00:03;15.07;;;13.32;;
38089;SDS011;23904;52.322;10.232;2023-06-22T04:02:33;14.95;;;13.35;;
38089;SDS011;23904;52.322;10.232;2023-06-22T04:04:58;16.85;;;15.02;;
38089;SDS011;23904;52.322;10.232;2023-06-22T04:07:24;17.67;;;14.77;;
38089;SDS011;23904;52.322;10.232;2023-06-22T04:09:49;16.25;;;14.02;;
38089;SDS011;23904;52.322;10.232;2023-06-22T04:12:15;17.80;;;13.82;;
38089;SDS011;23904;52.322;10.232;2023-06-22T04:14:40;19.27;;;13.70;;
38089;SDS011;23904;52.322;10.232;2023-06-22T04:17:06;15.48;;;13.85;;
38089;SDS011;23904;52.322;10.232;2023-06-22T04:19:32;14.35;;;12.52;;
38089;SDS011;23904;52.322;10.232;2023-06-22T04:21:57;16.58;;;13.45;;
38089;SDS011;23904;52.322;10.232;2023-06-22T04:24:23;14.90;;;13.13;;
38089;SDS011;23904;52.322;10.232;2023-06-22T04:26:48;14.27;;;12.68;;
38089;SDS011;23904;52.322;10.232;2023-06-22T04:29:18;15.85;;;13.40;;
38089;SDS011;23904;52.322;10.232;2023-06-22T04:31:44;14.82;;;12.75;;
38089;SDS011;23904;52.322;10.232;2023-06-22T04:34:09;15.90;;;13.55;;
38089;SDS011;23904;52.322;10.232;2023-06-22T04:36:35;16.38;;;13.75;;
38089;SDS011;23904;52.322;10.232;2023-06-22T04:39:04;13.57;;;12.18;;
38089;SDS011;23904;52.322;10.232;2023-06-22T04:41:32;13.52;;;12.13;;
38089;SDS011;23904;52.322;10.232;2023-06-22T04:44:06;13.32;;;11.93;;
38089;SDS011;23904;52.322;10.232;2023-06-22T04:46:39;13.83;;;12.43;;
38089;SDS011;23904;52.322;10.232;2023-06-22T04:49:05;16.58;;;12.45;;
38089;SDS011;23904;52.322;10.232;2023-06-22T04:51:39;14.23;;;12.82;;
38089;SDS011;23904;52.322;10.232;2023-06-22T04:54:06;12.55;;;11.07;;
38089;SDS011;23904;52.322;10.232;2023-06-22T04:56:32;16.42;;;12.35;;
38089;SDS011;23904;52.322;10.232;2023-06-22T04:58:59;13.68;;;12.32;;
38089;SDS011;23904;52.322;10.232;2023-06-22T05:01:25;12.70;;;11.40;;
38089;SDS011;23904;52.322;10.232;2023-06-22T05:03:51;13.95;;;12.18;;
38089;SDS011;23904;52.322;10.232;2023-06-22T05:06:20;14.82;;;11.73;;
38089;SDS011;23904;52.322;10.232;2023-06-22T05:08:51;16.48;;;12.25;;
38089;SDS011;23904;52.322;10.232;2023-06-22T05:11:26;18.38;;;12.50;;
38089;SDS011;23904;52.322;10.232;2023-06-22T05:13:52;13.57;;;12.10;;
38089;SDS011;23904;52.322;10.232;2023-06-22T05:16:19;16.58;;;12.32;;
38089;SDS011;23904;52.322;10.232;2023-06-22T05:18:52;15.23;;;11.90;;
38089;SDS011;23904;52.322;10.232;2023-06-22T05:21:26;18.48;;;11.30;;
38089;SDS011;23904;52.322;10.232;2023-06-22T05:23:52;12.27;;;10.90;;
38089;SDS011;23904;52.322;10.232;2023-06-22T05:26:19;14.88;;;12.32;;
38089;SDS011;23904;52.322;10.232;2023-06-22T05:28:45;13.85;;;11.63;;
38089;SDS011;23904;52.322;10.232;2023-06-22T05:31:13;12.35;;;10.15;;
38089;SDS011;23904;52.322;10.232;2023-06-22T05:33:41;14.95;;;11.82;;
38089;SDS011;23904;52.322;10.232;2023-06-22T05:36:08;14.40;;;11.27;;
38089;SDS011;23904;52.322;10.232;2023-06-22T05:38:34;16.60;;;12.05;;
38089;SDS011;23904;52.322;10.232;2023-06-22T05:41:01;15.40;;;11.98;;
38089;SDS011;23904;52.322;10.232;2023-06-22T05:43:26;15.82;;;13.35;;
38089;SDS011;23904;52.322;10.232;2023-06-22T05:45:52;14.18;;;11.65;;
38089;SDS011;23904;52.322;10.232;2023-06-22T05:48:17;15.27;;;12.52;;
38089;SDS011;23904;52.322;10.232;2023-06-22T05:50:43;19.95;;;11.20;;
38089;SDS011;23904;52.322;10.232;2023-06-22T05:53:08;12.63;;;10.65;;
38089;SDS011;23904;52.322;10.232;2023-06-22T05:55:34;12.10;;;10.35;;
38089;SDS011;23904;52.322;10.232;2023-06-22T05:58:00;15.23;;;11.35;;
38089;SDS011;23904;52.322;10.232;2023-06-22T06:00:25;12.38;;;11.02;;
38089;SDS011;23904;52.322;10.232;2023-06-22T06:02:51;15.20;;;11.40;;
38089;SDS011;23904;52.322;10.232;2023-06-22T06:05:16;14.35;;;10.80;;
38089;SDS011;23904;52.322;10.232;2023-06-22T06:07:43;17.42;;;12.02;;
38089;SDS011;23904;52.322;10.232;2023-06-22T06:10:11;11.48;;;10.23;;
38089;SDS011;23904;52.322;10.232;2023-06-22T06:12:37;17.23;;;10.73;;
38089;SDS011;23904;52.322;10.232;2023-06-22T06:15:03;11.02;;;9.63;;
38089;SDS011;23904;52.322;10.232;2023-06-22T06:17:29;13.48;;;10.43;;
38089;SDS011;23904;52.322;10.232;2023-06-22T06:19:55;13.88;;;10.43;;
38089;SDS011;23904;52.322;10.232;2023-06-22T06:22:21;16.00;;;9.75;;
38089;SDS011;23904;52.322;10.232;2023-06-22T06:24:48;11.20;;;9.38;;
38089;SDS011;23904;52.322;10.232;2023-06-22T06:27:14;11.27;;;9.05;;
38089;SDS011;23904;52.322;10.232;2023-06-22T06:29:43;13.85;;;10.15;;
38089;SDS011;23904;52.322;10.232;2023-06-22T06:32:10;12.57;;;10.27;;
38089;SDS011;23904;52.322;10.232;2023-06-22T06:34:36;13.77;;;9.45;;
38089;SDS011;23904;52.322;10.232;2023-06-22T06:37:02;11.90;;;8.98;;
38089;SDS011;23904;52.322;10.232;2023-06-22T06:39:28;13.15;;;10.15;;
38089;SDS011;23904;52.322;10.232;2023-06-22T06:41:54;11.57;;;9.55;;
38089;SDS011;23904;52.322;10.232;2023-06-22T06:44:19;12.23;;;10.20;;
38089;SDS011;23904;52.322;10.232;2023-06-22T06:46:45;13.05;;;9.07;;
38089;SDS011;23904;52.322;10.232;2023-06-22T06:49:10;12.93;;;10.15;;
38089;SDS011;23904;52.322;10.232;2023-06-22T06:51:36;15.20;;;10.77;;
38089;SDS011;23904;52.322;10.232;2023-06-22T06:54:02;11.68;;;9.00;;
38089;SDS011;23904;52.322;10.232;2023-06-22T06:56:28;15.65;;;9.52;;
38089;SDS011;23904;52.322;10.232;2023-06-22T06:58:55;11.00;;;9.73;;
38089;SDS011;23904;52.322;10.232;2023-06-22T07:01:20;12.38;;;9.82;;
38089;SDS011;23904;52.322;10.232;2023-06-22T07:03:46;12.57;;;11.25;;
38089;SDS011;23904;52.322;10.232;2023-06-22T07:06:12;12.48;;;9.95;;
38089;SDS011;23904;52.322;10.232;2023-06-22T07:08:38;12.60;;;9.73;;
38089;SDS011;23904;52.322;10.232;2023-06-22T07:11:04;12.60;;;9.73;;
38089;SDS011;23904;52.322;10.232;2023-06-22T07:13:30;13.35;;;9.05;;
38089;SDS011;23904;52.322;10.232;2023-06-22T07:15:56;11.38;;;9.77;;
38089;SDS011;23904;52.322;10.232;2023-06-22T07:18:21;11.20;;;9.73;;
38089;SDS011;23904;52.322;10.232;2023-06-22T07:20:47;14.70;;;9.70;;
38089;SDS011;23904;52.322;10.232;2023-06-22T07:23:12;10.00;;;9.00;;
38089;SDS011;23904;52.322;10.232;2023-06-22T07:25:38;10.07;;;8.63;;
38089;SDS011;23904;52.322;10.232;2023-06-22T07:28:04;9.35;;;8.35;;
38089;SDS011;23904;52.322;10.232;2023-06-22T07:30:32;10.82;;;9.68;;
38089;SDS011;23904;52.322;10.232;2023-06-22T07:32:58;11.25;;;8.68;;
38089;SDS011;23904;52.322;10.232;2023-06-22T07:35:28;11.50;;;8.88;;
38089;SDS011;23904;52.322;10.232;2023-06-22T07:37:55;12.38;;;9.45;;
38089;SDS011;23904;52.322;10.232;2023-06-22T07:40:20;15.10;;;9.73;;
38089;SDS011;23904;52.322;10.232;2023-06-22T07:42:46;11.85;;;8.30;;
38089;SDS011;23904;52.322;10.232;2023-06-22T07:45:13;11.32;;;8.45;;
38089;SDS011;23904;52.322;10.232;2023-06-22T07:47:39;12.15;;;8.13;;
38089;SDS011;23904;52.322;10.232;2023-06-22T07:50:05;13.95;;;9.70;;
38089;SDS011;23904;52.322;10.232;2023-06-22T07:52:31;18.58;;;9.18;;
38089;SDS011;23904;52.322;10.232;2023-06-22T07:54:57;11.70;;;8.75;;
38089;SDS011;23904;52.322;10.232;2023-06-22T07:57:23;13.40;;;9.40;;
38089;SDS011;23904;52.322;10.232;2023-06-22T07:59:57;13.23;;;8.07;;
38089;SDS011;23904;52.322;10.232;2023-06-22T08:02:23;11.95;;;9.63;;
38089;SDS011;23904;52.322;10.232;2023-06-22T08:04:49;13.02;;;9.20;;
38089;SDS011;23904;52.322;10.232;2023-06-22T08:07:15;13.98;;;10.75;;
38089;SDS011;23904;52.322;10.232;2023-06-22T08:09:42;14.95;;;9.25;;
38089;SDS011;23904;52.322;10.232;2023-06-22T08:12:13;13.35;;;10.35;;
38089;SDS011;23904;52.322;10.232;2023-06-22T08:14:39;11.57;;;10.27;;
38089;SDS011;23904;52.322;10.232;2023-06-22T08:17:07;13.20;;;11.55;;
38089;SDS011;23904;52.322;10.232;2023-06-22T08:19:32;13.13;;;10.65;;
38089;SDS011;23904;52.322;10.232;2023-06-22T08:21:58;13.88;;;10.70;;
38089;SDS011;23904;52.322;10.232;2023-06-22T08:24:23;13.43;;;11.25;;
38089;SDS011;23904;52.322;10.232;2023-06-22T08:26:51;17.08;;;11.75;;
38089;SDS011;23904;52.322;10.232;2023-06-22T08:29:16;14.38;;;11.52;;
38089;SDS011;23904;52.322;10.232;2023-06-22T08:31:42;13.43;;;12.02;;
38089;SDS011;23904;52.322;10.232;2023-06-22T08:34:08;17.23;;;11.77;;
38089;SDS011;23904;52.322;10.232;2023-06-22T08:36:33;15.77;;;11.40;;
38089;SDS011;23904;52.322;10.232;2023-06-22T08:39:06;14.68;;;12.80;;
38089;SDS011;23904;52.322;10.232;2023-06-22T08:41:33;14.02;;;12.48;;
38089;SDS011;23904;52.322;10.232;2023-06-22T08:43:58;14.73;;;11.90;;
38089;SDS011;23904;52.322;10.232;2023-06-22T08:46:24;14.40;;;10.80;;
38089;SDS011;23904;52.322;10.232;2023-06-22T08:48:55;18.10;;;12.35;;
38089;SDS011;23904;52.322;10.232;2023-06-22T08:51:22;13.30;;;11.90;;
38089;SDS011;23904;52.322;10.232;2023-06-22T08:53:48;13.70;;;11.73;;
38089;SDS011;23904;52.322;10.232;2023-06-22T08:56:14;14.15;;;12.68;;
38089;SDS011;23904;52.322;10.232;2023-06-22T08:58:40;14.15;;;12.50;;
38089;SDS011;23904;52.322;10.232;2023-06-22T09:01:05;13.82;;;12.18;;
38089;SDS011;23904;52.322;10.232;2023-06-22T09:03:31;16.40;;;12.70;;
38089;SDS011;23904;52.322;10.232;2023-06-22T09:05:57;14.60;;;13.07;;
38089;SDS011;23904;52.322;10.232;2023-06-22T09:08:23;14.73;;;12.02;;
38089;SDS011;23904;52.322;10.232;2023-06-22T09:10:49;17.25;;;14.30;;
38089;SDS011;23904;52.322;10.232;2023-06-22T09:13:15;15.35;;;13.70;;
38089;SDS011;23904;52.322;10.232;2023-06-22T09:15:40;17.63;;;13.65;;
38089;SDS011;23904;52.322;10.232;2023-06-22T09:18:06;16.48;;;14.35;;
38089;SDS011;23904;52.322;10.232;2023-06-22T09:20:31;15.35;;;13.38;;
38089;SDS011;23904;52.322;10.232;2023-06-22T09:22:57;16.50;;;14.30;;
38089;SDS011;23904;52.322;10.232;2023-06-22T09:25:23;14.50;;;12.98;;
38089;SDS011;23904;52.322;10.232;2023-06-22T09:27:48;14.98;;;13.48;;
38089;SDS011;23904;52.322;10.232;2023-06-22T09:30:14;15.38;;;12.05;;
38089;SDS011;23904;52.322;10.232;2023-06-22T09:32:39;15.25;;;13.65;;
38089;SDS011;23904;52.322;10.232;2023-06-22T09:35:05;15.43;;;11.77;;
38089;SDS011;23904;52.322;10.232;2023-06-22T09:37:31;15.18;;;13.68;;
38089;SDS011;23904;52.322;10.232;2023-06-22T09:39:57;13.98;;;12.15;;
38089;SDS011;23904;52.322;10.232;2023-06-22T09:42:23;15.20;;;13.52;;
38089;SDS011;23904;52.322;10.232;2023-06-22T09:44:48;13.73;;;11.90;;
38089;SDS011;23904;52.322;10.232;2023-06-22T09:47:13;15.80;;;12.95;;
38089;SDS011;23904;52.322;10.232;2023-06-22T09:49:39;18.45;;;14.02;;
38089;SDS011;23904;52.322;10.232;2023-06-22T09:52:05;15.50;;;13.93;;
38089;SDS011;23904;52.322;10.232;2023-06-22T09:54:31;17.35;;;13.32;;
38089;SDS011;23904;52.322;10.232;2023-06-22T09:56:56;15.63;;;13.75;;
38089;SDS011;23904;52.322;10.232;2023-06-22T09:59:22;19.55;;;15.23;;
38089;SDS011;23904;52.322;10.232;2023-06-22T10:01:47;16.00;;;13.13;;
38089;SDS011;23904;52.322;10.232;2023-06-22T10:04:13;15.27;;;12.77;;
38089;SDS011;23904;52.322;10.232;2023-06-22T10:06:38;15.85;;;14.35;;
38089;SDS011;23904;52.322;10.232;2023-06-22T10:09:05;13.60;;;12.20;;
38089;SDS011;23904;52.322;10.232;2023-06-22T10:11:32;14.50;;;12.68;;
38089;SDS011;23904;52.322;10.232;2023-06-22T10:13:59;15.38;;;13.88;;
38089;SDS011;23904;52.322;10.232;2023-06-22T10:16:32;15.73;;;14.13;;
38089;SDS011;23904;52.322;10.232;2023-06-22T10:19:00;14.13;;;12.70;;
38089;SDS011;23904;52.322;10.232;2023-06-22T10:21:26;15.23;;;13.60;;
38089;SDS011;23904;52.322;10.232;2023-06-22T10:23:53;13.75;;;11.88;;
38089;SDS011;23904;52.322;10.232;2023-06-22T10:26:20;16.05;;;13.60;;
38089;SDS011;23904;52.322;10.232;2023-06-22T10:28:45;13.85;;;12.55;;
38089;SDS011;23904;52.322;10.232;2023-06-22T10:31:11;14.75;;;13.20;;
38089;SDS011;23904;52.322;10.232;2023-06-22T10:33:36;14.55;;;12.57;;
38089;SDS011;23904;52.322;10.232;2023-06-22T10:36:02;13.40;;;12.10;;
38089;SDS011;23904;52.322;10.232;2023-06-22T10:38:27;14.52;;;12.00;;
38089;SDS011;23904;52.322;10.232;2023-06-22T10:40:53;14.68;;;13.18;;
38089;SDS011;23904;52.322;10.232;2023-06-22T10:43:18;16.92;;;13.93;;
38089;SDS011;23904;52.322;10.232;2023-06-22T10:45:44;16.85;;;15.15;;
38089;SDS011;23904;52.322;10.232;2023-06-22T10:48:10;16.00;;;13.95;;
38089;SDS011;23904;52.322;10.232;2023-06-22T10:50:35;17.83;;;13.30;;
38089;SDS011;23904;52.322;10.232;2023-06-22T10:53:01;15.93;;;13.48;;
38089;SDS011;23904;52.322;10.232;2023-06-22T10:55:27;14.98;;;13.13;;
38089;SDS011;23904;52.322;10.232;2023-06-22T10:57:52;14.52;;;13.10;;
38089;SDS011;23904;52.322;10.232;2023-06-22T11:00:18;17.05;;;13.50;;
38089;SDS011;23904;52.322;10.232;2023-06-22T11:02:43;13.80;;;12.40;;
38089;SDS011;23904;52.322;10.232;2023-06-22T11:05:09;13.32;;;11.85;;
38089;SDS011;23904;52.322;10.232;2023-06-22T11:07:34;15.95;;;14.32;;
38089;SDS011;23904;52.322;10.232;2023-06-22T11:10:02;15.35;;;13.73;;
38089;SDS011;23904;52.322;10.232;2023-06-22T11:12:28;18.17;;;16.02;;
38089;SDS011;23904;52.322;10.232;2023-06-22T11:14:54;16.02;;;14.30;;
38089;SDS011;23904;52.322;10.232;2023-06-22T11:17:22;16.05;;;14.20;;
38089;SDS011;23904;52.322;10.232;2023-06-22T11:19:47;14.43;;;12.95;;
38089;SDS011;23904;52.322;10.232;2023-06-22T11:22:13;12.80;;;11.60;;
38089;SDS011;23904;52.322;10.232;2023-06-22T11:24:38;11.75;;;10.55;;
38089;SDS011;23904;52.322;10.232;2023-06-22T11:27:04;12.85;;;11.60;;
38089;SDS011;23904;52.322;10.232;2023-06-22T11:29:30;13.48;;;11.70;;
38089;SDS011;23904;52.322;10.232;2023-06-22T11:31:56;10.88;;;9.82;;
38089;SDS011;23904;52.322;10.232;2023-06-22T11:34:21;11.52;;;10.40;;
38089;SDS011;23904;52.322;10.232;2023-06-22T11:36:46;13.68;;;12.07;;
38089;SDS011;23904;52.322;10.232;2023-06-22T11:39:13;12.45;;;10.80;;
38089;SDS011;23904;52.322;10.232;2023-06-22T11:41:39;13.05;;;10.98;;
38089;SDS011;23904;52.322;10.232;2023-06-22T11:44:06;11.27;;;10.07;;
38089;SDS011;23904;52.322;10.232;2023-06-22T11:46:32;10.45;;;8.93;;
38089;SDS011;23904;52.322;10.232;2023-06-22T11:48:57;9.65;;;8.82;;
38089;SDS011;23904;52.322;10.232;2023-06-22T11:51:23;10.10;;;9.10;;
38089;SDS011;23904;52.322;10.232;2023-06-22T11:53:49;9.05;;;7.95;;
38089;SDS011;23904;52.322;10.232;2023-06-22T11:56:14;9.02;;;8.13;;
38089;SDS011;23904;52.322;10.232;2023-06-22T11:58:40;11.32;;;8.48;;
38089;SDS011;23904;52.322;10.232;2023-06-22T12:01:05;8.95;;;7.97;;
38089;SDS011;23904;52.322;10.232;2023-06-22T12:03:31;8.98;;;8.07;;
38089;SDS011;23904;52.322;10.232;2023-06-22T12:05:56;8.48;;;7.63;;
38089;SDS011;23904;52.322;10.232;2023-06-22T12:08:22;10.10;;;9.15;;
38089;SDS011;23904;52.322;10.232;2023-06-22T12:10:49;10.15;;;8.88;;
38089;SDS011;23904;52.322;10.232;2023-06-22T12:13:15;9.40;;;8.50;;
38089;SDS011;23904;52.322;10.232;2023-06-22T12:15:40;10.10;;;9.10;;
38089;SDS011;23904;52.322;10.232;2023-06-22T12:18:06;9.98;;;8.77;;
38089;SDS011;23904;52.322;10.232;2023-06-22T12:20:31;11.73;;;10.60;;
38089;SDS011;23904;52.322;10.232;2023-06-22T12:22:57;12.18;;;10.75;;
38089;SDS011;23904;52.322;10.232;2023-06-22T12:25:23;15.35;;;11.02;;
38089;SDS011;23904;52.322;10.232;2023-06-22T12:27:49;10.93;;;9.93;;
38089;SDS011;23904;52.322;10.232;2023-06-22T12:30:16;12.43;;;9.65;;
38089;SDS011;23904;52.322;10.232;2023-06-22T12:32:41;10.95;;;9.77;;
38089;SDS011;23904;52.322;10.232;2023-06-22T12:35:07;11.70;;;10.60;;
38089;SDS011;23904;52.322;10.232;2023-06-22T12:37:38;11.13;;;10.00;;
38089;SDS011;23904;52.322;10.232;2023-06-22T12:40:07;13.30;;;10.68;;
38089;SDS011;23904;52.322;10.232;2023-06-22T12:42:34;12.07;;;10.55;;
38089;SDS011;23904;52.322;10.232;2023-06-22T12:44:59;13.85;;;10.60;;
38089;SDS011;23904;52.322;10.232;2023-06-22T12:47:25;11.25;;;9.90;;
38089;SDS011;23904;52.322;10.232;2023-06-22T12:49:51;14.43;;;11.07;;
38089;SDS011;23904;52.322;10.232;2023-06-22T12:52:16;11.32;;;10.23;;
38089;SDS011;23904;52.322;10.232;2023-06-22T12:54:42;10.35;;;9.07;;
38089;SDS011;23904;52.322;10.232;2023-06-22T12:57:07;12.68;;;10.45;;
38089;SDS011;23904;52.322;10.232;2023-06-22T12:59:33;11.55;;;10.45;;
38089;SDS011;23904;52.322;10.232;2023-06-22T13:01:58;12.25;;;10.95;;
38089;SDS011;23904;52.322;10.232;2023-06-22T13:04:24;11.25;;;9.85;;
38089;SDS011;23904;52.322;10.232;2023-06-22T13:06:49;12.32;;;11.02;;
38089;SDS011;23904;52.322;10.232;2023-06-22T13:09:15;11.10;;;10.02;;
38089;SDS011;23904;52.322;10.232;2023-06-22T13:11:43;12.05;;;9.82;;
38089;SDS011;23904;52.322;10.232;2023-06-22T13:14:09;12.55;;;11.35;;
38089;SDS011;23904;52.322;10.232;2023-06-22T13:16:34;11.55;;;10.45;;
38089;SDS011;23904;52.322;10.232;2023-06-22T13:19:00;11.95;;;10.52;;
38089;SDS011;23904;52.322;10.232;2023-06-22T13:21:25;12.20;;;10.90;;
38089;SDS011;23904;52.322;10.232;2023-06-22T13:23:51;12.75;;;11.45;;
38089;SDS011;23904;52.322;10.232;2023-06-22T13:26:17;13.18;;;11.00;;
38089;SDS011;23904;52.322;10.232;2023-06-22T13:28:42;11.85;;;10.75;;
38089;SDS011;23904;52.322;10.232;2023-06-22T13:31:08;12.02;;;10.82;;
38089;SDS011;23904;52.322;10.232;2023-06-22T13:33:33;12.82;;;10.70;;
38089;SDS011;23904;52.322;10.232;2023-06-22T13:35:59;11.20;;;9.68;;
38089;SDS011;23904;52.322;10.232;2023-06-22T13:38:25;10.98;;;9.80;;
38089;SDS011;23904;52.322;10.232;2023-06-22T13:40:51;11.07;;;9.88;;
38089;SDS011;23904;52.322;10.232;2023-06-22T13:43:17;10.98;;;9.85;;
38089;SDS011;23904;52.322;10.232;2023-06-22T13:45:42;11.30;;;9.90;;
38089;SDS011;23904;52.322;10.232;2023-06-22T13:48:08;11.63;;;9.93;;
38089;SDS011;23904;52.322;10.232;2023-06-22T13:50:34;11.57;;;9.18;;
38089;SDS011;23904;52.322;10.232;2023-06-22T13:53:00;11.57;;;9.27;;
38089;SDS011;23904;52.322;10.232;2023-06-22T13:55:26;11.77;;;10.57;;
38089;SDS011;23904;52.322;10.232;2023-06-22T13:57:51;10.35;;;9.27;;
38089;SDS011;23904;52.322;10.232;2023-06-22T14:00:17;10.45;;;9.55;;
38089;SDS011;23904;52.322;10.232;2023-06-22T14:02:44;10.90;;;9.80;;
38089;SDS011;23904;52.322;10.232;2023-06-22T14:05:10;11.35;;;9.90;;
38089;SDS011;23904;52.322;10.232;2023-06-22T14:07:36;10.32;;;9.32;;
38089;SDS011;23904;52.322;10.232;2023-06-22T14:10:02;16.02;;;10.93;;